Terminal Aerodrome Forecast
Issued by NWS Flagstaff, AZ

Home | Current Version | Previous Version | Text Only | Print | Product List | Glossary On
Versions: 1 2 3 4 5 6 7 8 9 10 11 12 13 14 15 16 17 18 19
000
FTUS45 KFGZ 180500
TAFFLG
TAF
KFLG 180520Z 1806/1906 07005KT P6SM FEW050
     FM181600 VRB06KT P6SM VCSH SCT015 OVC040
      TEMPO 1818/1822 5SM TSRA OVC010CB
     FM182200 23008KT P6SM VCSH SCT030 BKN060=

USA.gov is the U.S. government's official web portal to all federal, state and local government web resources and services.